createdAt,value
2023-03-31T00:01:42.162Z,16.07
2023-03-31T00:04:16.757Z,16.53
2023-03-31T00:06:50.184Z,15.93
2023-03-31T00:09:23.631Z,15.73
2023-03-31T00:11:58.366Z,15.00
2023-03-31T00:14:31.802Z,17.27
2023-03-31T00:17:05.251Z,18.50
2023-03-31T00:19:40.406Z,15.90
2023-03-31T00:22:13.263Z,15.97
2023-03-31T00:24:46.609Z,15.33
2023-03-31T00:27:19.873Z,18.97
2023-03-31T00:29:54.769Z,15.07
2023-03-31T00:32:28.267Z,13.30
2023-03-31T00:35:02.632Z,14.00
2023-03-31T00:37:36.349Z,12.87
2023-03-31T00:40:13.382Z,11.93
2023-03-31T00:42:48.373Z,14.57
2023-03-31T00:45:32.731Z,16.30
2023-03-31T00:48:15.413Z,13.83
2023-03-31T00:53:27.929Z,16.10
2023-03-31T00:56:04.703Z,15.40
2023-03-31T00:58:44.126Z,15.77
2023-03-31T01:01:20.863Z,17.23
2023-03-31T01:03:55.828Z,16.97
2023-03-31T01:06:31.009Z,15.20
2023-03-31T01:09:07.198Z,17.63
2023-03-31T01:11:40.952Z,17.57
2023-03-31T01:14:14.813Z,17.37
2023-03-31T01:16:50.029Z,17.30
2023-03-31T01:19:34.864Z,16.93
2023-03-31T01:22:46.754Z,14.37
2023-03-31T01:25:50.687Z,14.83
2023-03-31T01:28:35.326Z,15.57
2023-03-31T01:31:39.064Z,16.97
2023-03-31T01:35:04.667Z,16.90
2023-03-31T01:38:19.008Z,14.47
2023-03-31T01:41:08.016Z,13.07
2023-03-31T01:43:48.238Z,14.33
2023-03-31T01:46:29.721Z,14.20
2023-03-31T01:49:19.481Z,13.70
2023-03-31T01:52:01.930Z,18.33
2023-03-31T01:57:18.776Z,14.10
2023-03-31T02:00:00.541Z,15.33
2023-03-31T02:02:38.777Z,14.13
2023-03-31T02:05:17.329Z,14.37
2023-03-31T02:07:54.732Z,14.60
2023-03-31T02:10:31.438Z,12.87
2023-03-31T02:13:07.098Z,15.33
2023-03-31T02:15:44.562Z,15.63
2023-03-31T02:18:22.840Z,13.80
2023-03-31T02:20:58.744Z,16.60
2023-03-31T02:23:33.882Z,15.63
2023-03-31T02:26:11.305Z,14.80
2023-03-31T02:28:45.317Z,16.33
2023-03-31T02:31:32.376Z,16.33
2023-03-31T02:34:06.089Z,18.27
2023-03-31T02:36:39.753Z,19.17
2023-03-31T02:39:17.425Z,16.30
2023-03-31T02:41:51.342Z,18.25
2023-03-31T02:44:26.172Z,17.90
2023-03-31T02:47:00.303Z,17.33
2023-03-31T02:49:34.805Z,18.47
2023-03-31T02:52:41.782Z,17.70
2023-03-31T02:55:46.515Z,21.10
2023-03-31T02:58:35.654Z,16.97
2023-03-31T03:01:20.968Z,17.47
2023-03-31T03:04:09.904Z,18.37
2023-03-31T03:06:54.400Z,17.23
2023-03-31T03:09:46.398Z,17.93
2023-03-31T03:12:24.514Z,15.83
2023-03-31T03:15:03.849Z,18.67
2023-03-31T03:17:40.769Z,17.13
2023-03-31T03:20:16.565Z,14.33
2023-03-31T03:22:51.274Z,18.60
2023-03-31T03:25:24.792Z,19.00
2023-03-31T03:27:58.389Z,18.07
2023-03-31T03:30:32.235Z,16.53
2023-03-31T03:33:07.248Z,17.60
2023-03-31T03:35:40.638Z,17.37
2023-03-31T03:38:13.858Z,17.90
2023-03-31T03:40:49.609Z,17.73
2023-03-31T03:43:24.353Z,19.07
2023-03-31T03:45:57.850Z,17.70
2023-03-31T03:48:31.567Z,19.30
2023-03-31T03:51:05.899Z,16.10
2023-03-31T03:53:39.360Z,16.17
2023-03-31T03:56:12.938Z,15.63
2023-03-31T03:58:46.283Z,16.20
2023-03-31T04:01:19.894Z,20.27
2023-03-31T04:03:53.356Z,17.27
2023-03-31T04:06:27.492Z,16.97
2023-03-31T04:09:01.837Z,19.30
2023-03-31T04:11:36.941Z,17.27
2023-03-31T04:14:10.841Z,18.93
2023-03-31T04:16:46.982Z,17.73
2023-03-31T04:19:22.049Z,15.67
2023-03-31T04:21:59.222Z,17.03
2023-03-31T04:24:33.286Z,15.27
2023-03-31T04:27:07.959Z,15.77
2023-03-31T04:29:42.774Z,14.77
2023-03-31T04:32:22.114Z,17.13
2023-03-31T04:35:03.311Z,18.40
2023-03-31T04:37:39.354Z,17.60
2023-03-31T04:40:16.650Z,15.53
2023-03-31T04:42:50.048Z,16.13
2023-03-31T04:45:23.645Z,16.33
2023-03-31T04:47:56.642Z,19.60
2023-03-31T04:50:30.023Z,21.50
2023-03-31T04:53:04.019Z,23.93
2023-03-31T04:55:38.030Z,24.30
2023-03-31T04:58:11.476Z,23.37
2023-03-31T05:00:44.608Z,25.80
2023-03-31T05:03:18.381Z,20.03
2023-03-31T05:05:51.870Z,17.60
2023-03-31T05:08:27.293Z,18.00
2023-03-31T05:11:00.865Z,17.55
2023-03-31T05:13:34.868Z,18.73
2023-03-31T05:16:14.633Z,18.80
2023-03-31T05:18:48.644Z,16.73
2023-03-31T05:21:23.504Z,20.73
2023-03-31T05:23:57.307Z,19.30
2023-03-31T05:26:30.650Z,20.23
2023-03-31T05:29:03.890Z,18.37
2023-03-31T05:31:37.160Z,16.83
2023-03-31T05:34:10.839Z,21.57
2023-03-31T05:36:44.838Z,17.73
2023-03-31T05:39:19.054Z,23.13
2023-03-31T05:41:52.085Z,19.35
2023-03-31T05:44:26.858Z,21.30
2023-03-31T05:47:00.400Z,22.00
2023-03-31T05:49:33.711Z,21.63
2023-03-31T05:52:07.671Z,20.23
2023-03-31T05:54:42.237Z,19.17
2023-03-31T05:57:16.130Z,19.73
2023-03-31T05:59:49.904Z,20.23
2023-03-31T06:02:24.058Z,22.50
2023-03-31T06:04:57.918Z,21.60
2023-03-31T06:07:30.913Z,18.77
2023-03-31T06:10:04.660Z,18.93
2023-03-31T06:12:38.515Z,21.33
2023-03-31T06:15:13.576Z,20.17
2023-03-31T06:17:46.788Z,21.87
2023-03-31T06:20:28.233Z,17.97
2023-03-31T06:23:01.731Z,21.77
2023-03-31T06:25:43.978Z,19.50
2023-03-31T06:28:22.456Z,23.23
2023-03-31T06:31:03.724Z,18.67
2023-03-31T06:33:38.049Z,19.97
2023-03-31T06:36:13.639Z,22.50
2023-03-31T06:38:47.859Z,19.03
2023-03-31T06:41:22.715Z,18.67
2023-03-31T06:43:56.525Z,18.93
2023-03-31T06:46:30.162Z,19.27
2023-03-31T06:49:04.411Z,18.50
2023-03-31T06:51:37.809Z,18.73
2023-03-31T06:54:11.117Z,19.23
2023-03-31T06:56:44.575Z,18.87
2023-03-31T06:59:17.953Z,20.63
2023-03-31T07:01:51.546Z,27.37
2023-03-31T07:04:25.097Z,21.50
2023-03-31T07:06:59.569Z,19.70
2023-03-31T07:09:32.914Z,18.83
2023-03-31T07:12:06.617Z,18.80
2023-03-31T07:14:40.337Z,20.67
2023-03-31T07:17:13.775Z,19.00
2023-03-31T07:19:54.054Z,24.13
2023-03-31T07:22:26.990Z,19.40
2023-03-31T07:25:00.276Z,19.33
2023-03-31T07:27:33.447Z,20.17
2023-03-31T07:30:08.365Z,18.33
2023-03-31T07:32:41.683Z,21.67
2023-03-31T07:35:15.180Z,19.30
2023-03-31T07:37:50.444Z,18.23
2023-03-31T07:40:25.754Z,20.53
2023-03-31T07:42:59.338Z,19.47
2023-03-31T07:45:33.144Z,16.77
2023-03-31T07:48:07.166Z,21.40
2023-03-31T07:50:41.559Z,18.50
2023-03-31T07:53:20.898Z,19.53
2023-03-31T07:55:54.297Z,20.03
2023-03-31T07:58:27.399Z,20.13
2023-03-31T08:01:01.495Z,18.30
2023-03-31T08:03:35.376Z,17.67
2023-03-31T08:06:09.959Z,21.07
2023-03-31T08:08:43.729Z,19.47
2023-03-31T08:11:18.190Z,21.47
2023-03-31T08:13:51.741Z,20.23
2023-03-31T08:16:24.963Z,20.87
2023-03-31T08:18:58.325Z,19.40
2023-03-31T08:21:32.366Z,18.50
2023-03-31T08:24:06.157Z,18.13
2023-03-31T08:26:39.746Z,20.33
2023-03-31T08:29:13.746Z,19.10
2023-03-31T08:31:47.043Z,20.03
2023-03-31T08:34:20.601Z,20.13
2023-03-31T08:36:53.930Z,18.90
2023-03-31T08:39:27.753Z,15.67
2023-03-31T08:42:08.121Z,17.13
2023-03-31T08:44:47.142Z,20.67
2023-03-31T08:47:24.548Z,21.27
2023-03-31T08:50:01.922Z,19.47
2023-03-31T08:52:39.901Z,19.97
2023-03-31T08:55:20.070Z,21.10
2023-03-31T08:58:01.974Z,19.40
2023-03-31T09:00:51.160Z,21.27
2023-03-31T09:03:35.152Z,20.23
2023-03-31T09:06:13.554Z,21.93
2023-03-31T09:08:46.970Z,18.17
2023-03-31T09:11:31.576Z,16.17
2023-03-31T09:14:23.243Z,14.97
2023-03-31T09:17:09.404Z,18.97
2023-03-31T09:19:46.879Z,14.53
2023-03-31T09:22:24.627Z,17.20
2023-03-31T09:25:05.296Z,14.17
2023-03-31T09:27:41.549Z,13.10
2023-03-31T09:30:22.500Z,14.93
2023-03-31T09:33:04.338Z,16.57
2023-03-31T09:35:38.571Z,14.47
2023-03-31T09:38:13.756Z,16.33
2023-03-31T09:40:47.379Z,14.50
2023-03-31T09:43:26.019Z,15.53
2023-03-31T09:46:09.241Z,15.83
2023-03-31T09:48:48.687Z,13.43
2023-03-31T09:51:27.520Z,13.13
2023-03-31T09:54:04.086Z,13.80
2023-03-31T09:56:48.947Z,14.27
2023-03-31T09:59:23.412Z,15.07
2023-03-31T10:01:59.736Z,15.90
2023-03-31T10:04:36.407Z,14.27
2023-03-31T10:07:13.045Z,14.37
2023-03-31T10:09:46.478Z,14.43
2023-03-31T10:12:24.567Z,15.90
2023-03-31T10:15:04.300Z,14.63
2023-03-31T10:17:53.789Z,17.70
2023-03-31T10:20:36.235Z,13.77
2023-03-31T10:23:17.331Z,13.90
2023-03-31T10:25:51.613Z,16.90
2023-03-31T10:28:25.737Z,14.30
2023-03-31T10:31:03.374Z,15.67
2023-03-31T10:33:39.904Z,15.80
2023-03-31T10:36:24.165Z,15.63
2023-03-31T10:38:58.802Z,14.73
2023-03-31T10:41:33.483Z,16.33
2023-03-31T10:44:07.831Z,16.23
2023-03-31T10:46:49.185Z,16.95
2023-03-31T10:49:28.776Z,15.60
2023-03-31T10:52:03.139Z,16.02
2023-03-31T10:54:38.005Z,19.13
2023-03-31T10:57:11.640Z,15.03
2023-03-31T11:00:05.062Z,15.43
2023-03-31T11:03:15.206Z,17.93
2023-03-31T11:05:52.553Z,17.67
2023-03-31T11:08:45.239Z,15.23
2023-03-31T11:11:45.274Z,16.23
2023-03-31T11:14:30.828Z,14.73
2023-03-31T11:17:14.271Z,16.13
2023-03-31T11:19:59.250Z,17.10
2023-03-31T11:22:39.614Z,14.87
2023-03-31T11:25:22.217Z,13.50
2023-03-31T11:28:14.667Z,14.27
2023-03-31T11:30:53.793Z,13.50
2023-03-31T11:33:45.031Z,13.30
2023-03-31T11:36:31.011Z,13.87
2023-03-31T11:39:25.947Z,13.83
2023-03-31T11:42:04.723Z,10.80
2023-03-31T11:44:43.021Z,11.00
2023-03-31T11:47:20.588Z,10.60
2023-03-31T11:50:00.672Z,12.43
2023-03-31T11:52:38.958Z,10.77
2023-03-31T11:55:18.065Z,11.67
2023-03-31T11:58:00.926Z,10.70
2023-03-31T12:00:38.868Z,9.83
2023-03-31T12:03:17.287Z,8.30
2023-03-31T12:05:54.392Z,9.20
2023-03-31T12:08:37.252Z,8.40
2023-03-31T12:11:16.131Z,8.63
2023-03-31T12:13:53.993Z,7.00
2023-03-31T12:16:37.301Z,9.30
2023-03-31T12:19:17.426Z,7.97
2023-03-31T12:21:57.188Z,7.93
2023-03-31T12:24:32.101Z,7.63
2023-03-31T12:27:14.965Z,8.80
2023-03-31T12:29:53.081Z,8.10
2023-03-31T12:32:32.368Z,7.27
2023-03-31T12:35:15.604Z,7.70
2023-03-31T12:38:17.390Z,7.00
2023-03-31T12:41:00.995Z,7.65
2023-03-31T12:43:57.325Z,7.17
2023-03-31T12:46:52.920Z,7.30
2023-03-31T12:49:37.639Z,8.90
2023-03-31T12:52:16.014Z,6.30
2023-03-31T12:55:21.775Z,10.50
2023-03-31T12:57:55.168Z,7.43
2023-03-31T13:00:32.066Z,6.97
2023-03-31T13:03:43.386Z,8.03
2023-03-31T13:06:56.867Z,8.27
2023-03-31T13:09:55.290Z,7.67
2023-03-31T13:12:33.359Z,10.67
2023-03-31T13:15:15.082Z,7.93
2023-03-31T13:17:59.853Z,6.00
2023-03-31T13:20:38.152Z,6.20
2023-03-31T13:23:20.882Z,8.17
2023-03-31T13:25:55.593Z,6.63
2023-03-31T13:28:40.055Z,5.17
2023-03-31T13:31:14.985Z,7.23
2023-03-31T13:33:57.834Z,7.83
2023-03-31T13:36:59.300Z,5.77
2023-03-31T13:40:02.191Z,6.67
2023-03-31T13:43:03.233Z,8.20
2023-03-31T13:45:56.579Z,7.17
2023-03-31T13:48:44.016Z,6.33
2023-03-31T13:51:34.209Z,6.67
2023-03-31T13:54:50.098Z,4.83
2023-03-31T13:57:55.133Z,6.60
2023-03-31T14:00:43.066Z,5.37
2023-03-31T14:03:30.851Z,5.57
2023-03-31T14:06:07.936Z,6.17
2023-03-31T14:08:53.575Z,6.70
2023-03-31T14:11:28.772Z,5.20
2023-03-31T14:14:06.611Z,6.87
2023-03-31T14:16:42.279Z,6.20
2023-03-31T14:19:48.224Z,7.00
2023-03-31T14:22:32.937Z,6.87
2023-03-31T14:25:17.018Z,6.37
2023-03-31T14:28:01.310Z,6.43
2023-03-31T14:30:47.192Z,6.23
2023-03-31T14:33:38.520Z,6.47
2023-03-31T14:36:21.396Z,4.50
2023-03-31T14:38:54.994Z,4.47
2023-03-31T14:41:31.328Z,5.93
2023-03-31T14:44:07.381Z,5.90
2023-03-31T14:46:42.404Z,4.30
2023-03-31T14:49:26.614Z,6.57
2023-03-31T14:52:14.124Z,8.07
2023-03-31T14:54:49.270Z,9.23
2023-03-31T14:57:27.998Z,7.63
2023-03-31T15:00:05.375Z,7.23
2023-03-31T15:02:42.625Z,5.80
2023-03-31T15:05:31.353Z,7.00
2023-03-31T15:08:06.101Z,5.83
2023-03-31T15:10:42.521Z,5.80
2023-03-31T15:13:20.734Z,5.33
2023-03-31T15:15:54.411Z,7.65
2023-03-31T15:18:29.518Z,6.53
2023-03-31T15:21:03.652Z,6.90
2023-03-31T15:23:37.289Z,5.70
2023-03-31T15:26:15.194Z,5.57
2023-03-31T15:28:54.778Z,4.10
2023-03-31T15:31:31.087Z,3.47
2023-03-31T15:34:17.018Z,4.00
2023-03-31T15:36:50.693Z,4.97
2023-03-31T15:39:24.344Z,3.57
2023-03-31T15:41:59.281Z,3.37
2023-03-31T15:44:40.098Z,4.00
2023-03-31T15:47:20.217Z,5.70
2023-03-31T15:49:59.300Z,3.43
2023-03-31T15:52:36.855Z,4.33
2023-03-31T15:55:31.197Z,3.67
2023-03-31T15:58:05.320Z,3.80
2023-03-31T16:00:53.464Z,3.43
2023-03-31T16:03:31.337Z,3.40
2023-03-31T16:06:11.147Z,6.57
2023-03-31T16:08:48.755Z,8.47
2023-03-31T16:11:25.880Z,5.37
2023-03-31T16:14:06.303Z,4.73
2023-03-31T16:16:41.619Z,5.50
2023-03-31T16:19:15.697Z,5.23
2023-03-31T16:21:53.458Z,5.23
2023-03-31T16:24:33.600Z,5.77
2023-03-31T16:27:09.640Z,7.00
2023-03-31T16:29:43.079Z,4.40
2023-03-31T16:32:18.554Z,4.77
2023-03-31T16:35:00.303Z,6.87
2023-03-31T16:37:34.184Z,10.23
2023-03-31T16:40:10.146Z,10.00
2023-03-31T16:42:43.549Z,12.93
2023-03-31T16:45:17.375Z,13.33
2023-03-31T16:47:53.118Z,16.23
2023-03-31T16:50:28.805Z,12.27
2023-03-31T16:53:03.224Z,11.80
2023-03-31T16:55:37.020Z,14.03
2023-03-31T16:58:11.041Z,18.67
2023-03-31T17:00:45.895Z,17.60
2023-03-31T17:03:19.525Z,17.30
2023-03-31T17:05:56.258Z,16.13
2023-03-31T17:08:31.488Z,16.00
2023-03-31T17:11:07.118Z,18.60
2023-03-31T17:13:41.852Z,18.50
2023-03-31T17:16:20.327Z,33.53
2023-03-31T17:18:57.507Z,38.47
2023-03-31T17:21:31.449Z,50.80
2023-03-31T17:24:07.108Z,49.30
2023-03-31T17:26:40.500Z,42.37
2023-03-31T17:29:15.467Z,34.73
2023-03-31T17:31:50.270Z,29.63
2023-03-31T17:34:23.956Z,25.47
2023-03-31T17:36:57.395Z,21.50
2023-03-31T17:39:31.152Z,22.27
2023-03-31T17:42:04.965Z,19.57
2023-03-31T17:44:38.244Z,15.63
2023-03-31T17:47:12.161Z,31.10
2023-03-31T17:49:45.077Z,14.73
2023-03-31T17:52:18.333Z,14.47
2023-03-31T17:54:52.142Z,13.80
2023-03-31T17:57:26.188Z,16.47
2023-03-31T18:00:00.197Z,19.23
2023-03-31T18:02:34.057Z,16.13
2023-03-31T18:05:09.780Z,13.77
2023-03-31T18:07:43.271Z,15.47
2023-03-31T18:10:18.853Z,13.50
2023-03-31T18:12:52.054Z,18.10
2023-03-31T18:15:26.060Z,14.60
2023-03-31T18:18:00.221Z,14.97
2023-03-31T18:20:34.273Z,17.43
2023-03-31T18:23:07.468Z,16.63
2023-03-31T18:25:44.138Z,16.53
2023-03-31T18:28:18.862Z,17.53
2023-03-31T18:30:53.383Z,18.80
2023-03-31T18:33:27.388Z,20.03
2023-03-31T18:36:01.026Z,18.93
2023-03-31T18:38:37.190Z,19.40
2023-03-31T18:41:10.970Z,21.10
2023-03-31T18:43:45.349Z,23.90
2023-03-31T18:46:20.201Z,21.63
2023-03-31T18:48:53.701Z,25.90
2023-03-31T18:51:27.305Z,20.83
2023-03-31T18:54:00.535Z,23.33
2023-03-31T18:56:33.800Z,26.93
2023-03-31T18:59:10.150Z,23.40
2023-03-31T19:01:44.574Z,23.67
2023-03-31T19:04:18.090Z,20.47
2023-03-31T19:06:52.415Z,19.83
2023-03-31T19:09:28.138Z,21.97
2023-03-31T19:12:01.634Z,18.77
2023-03-31T19:14:36.398Z,20.93
2023-03-31T19:17:09.931Z,18.93
2023-03-31T19:19:43.261Z,18.90
2023-03-31T19:22:16.852Z,18.80
2023-03-31T19:24:50.531Z,19.77
2023-03-31T19:27:23.947Z,18.90
2023-03-31T19:29:57.170Z,18.87
2023-03-31T19:32:30.881Z,19.23
2023-03-31T19:35:04.881Z,18.93
2023-03-31T19:37:39.062Z,19.40
2023-03-31T19:40:14.640Z,18.77
2023-03-31T19:42:47.734Z,17.47
2023-03-31T19:45:21.360Z,17.00
2023-03-31T19:47:55.370Z,18.50
2023-03-31T19:50:28.925Z,17.60
2023-03-31T19:53:02.304Z,15.43
2023-03-31T19:55:37.740Z,16.57
2023-03-31T19:58:11.556Z,16.20
2023-03-31T20:00:44.941Z,18.23
2023-03-31T20:03:18.607Z,17.90
2023-03-31T20:05:52.360Z,17.43
2023-03-31T20:08:25.600Z,19.50
2023-03-31T20:11:04.270Z,17.53
2023-03-31T20:13:38.714Z,19.07
2023-03-31T20:16:14.055Z,20.30
2023-03-31T20:18:49.356Z,20.00
2023-03-31T20:21:24.565Z,17.17
2023-03-31T20:23:59.009Z,23.60
2023-03-31T20:26:33.846Z,19.43
2023-03-31T20:29:07.439Z,17.43
2023-03-31T20:31:42.572Z,20.87
2023-03-31T20:34:17.536Z,21.80
2023-03-31T20:36:52.070Z,18.67
2023-03-31T20:39:25.327Z,19.17
2023-03-31T20:41:58.808Z,18.73
2023-03-31T20:44:32.564Z,21.53
2023-03-31T20:47:06.258Z,18.33
2023-03-31T20:49:39.788Z,20.93
2023-03-31T20:52:13.098Z,19.60
2023-03-31T20:54:46.595Z,21.23
2023-03-31T20:57:19.992Z,18.97
2023-03-31T20:59:53.321Z,19.97
2023-03-31T21:02:27.114Z,19.70
2023-03-31T21:05:01.151Z,22.37
2023-03-31T21:07:34.503Z,19.23
2023-03-31T21:10:09.194Z,18.37
2023-03-31T21:12:46.504Z,20.07
2023-03-31T21:15:20.281Z,20.40
2023-03-31T21:17:53.953Z,19.27
2023-03-31T21:20:26.876Z,20.43
2023-03-31T21:23:00.106Z,18.10
2023-03-31T21:25:34.522Z,18.50
2023-03-31T21:28:08.308Z,18.90
2023-03-31T21:30:41.715Z,19.23
2023-03-31T21:33:15.078Z,18.67
2023-03-31T21:35:49.170Z,19.83
2023-03-31T21:38:22.903Z,20.43
2023-03-31T21:40:56.631Z,21.53
2023-03-31T21:43:30.005Z,19.73
2023-03-31T21:46:04.121Z,20.80
2023-03-31T21:48:38.601Z,20.83
2023-03-31T21:51:12.262Z,19.90
2023-03-31T21:53:46.143Z,22.90
2023-03-31T21:56:19.502Z,18.23
2023-03-31T21:58:53.492Z,18.67
2023-03-31T22:01:27.106Z,18.67
2023-03-31T22:04:01.800Z,19.47
2023-03-31T22:06:36.092Z,21.30
2023-03-31T22:09:09.503Z,19.53
2023-03-31T22:11:42.970Z,22.97
2023-03-31T22:14:16.287Z,27.73
2023-03-31T22:16:49.821Z,28.10
2023-03-31T22:19:23.551Z,25.93
2023-03-31T22:21:58.525Z,25.33
2023-03-31T22:24:32.121Z,25.53
2023-03-31T22:27:05.765Z,27.17
2023-03-31T22:29:39.219Z,28.37
2023-03-31T22:32:12.596Z,31.43
2023-03-31T22:34:46.310Z,33.00
2023-03-31T22:37:20.189Z,34.17
2023-03-31T22:39:53.713Z,29.27
2023-03-31T22:42:27.722Z,27.10
2023-03-31T22:45:00.922Z,27.97
2023-03-31T22:47:34.353Z,26.83
2023-03-31T22:50:09.582Z,24.53
2023-03-31T22:52:42.752Z,26.27
2023-03-31T22:55:16.407Z,27.53
2023-03-31T22:57:49.930Z,23.73
2023-03-31T23:00:24.446Z,25.47
2023-03-31T23:02:57.976Z,26.53
2023-03-31T23:05:31.798Z,21.17
2023-03-31T23:08:05.349Z,22.83
2023-03-31T23:10:38.823Z,20.63
2023-03-31T23:13:12.349Z,22.33
2023-03-31T23:15:45.746Z,24.80
2023-03-31T23:18:20.674Z,21.90
2023-03-31T23:20:53.968Z,19.80
2023-03-31T23:23:26.896Z,19.23
2023-03-31T23:26:03.581Z,20.37
2023-03-31T23:28:38.253Z,23.33
2023-03-31T23:31:13.488Z,20.97
2023-03-31T23:33:47.507Z,21.13
2023-03-31T23:36:21.972Z,24.70
2023-03-31T23:38:57.333Z,20.90
2023-03-31T23:41:30.838Z,21.90
2023-03-31T23:44:04.257Z,21.63
2023-03-31T23:46:38.367Z,19.50
2023-03-31T23:49:11.887Z,23.00
2023-03-31T23:51:45.601Z,18.73
2023-03-31T23:54:19.043Z,21.47
2023-03-31T23:56:53.033Z,20.50
2023-03-31T23:59:26.556Z,20.27
